sensor_id;sensor_type;location;lat;lon;timestamp;pressure;altitude;pressure_sealevel;temperature
13304;BMP280;6720;51.958;4.540;2023-04-12T00:02:24;100174.84;;;9.28
13304;BMP280;6720;51.958;4.540;2023-04-12T00:04:51;100173.09;;;9.29
13304;BMP280;6720;51.958;4.540;2023-04-12T00:07:21;100147.22;;;9.18
13304;BMP280;6720;51.958;4.540;2023-04-12T00:09:47;100155.66;;;9.29
13304;BMP280;6720;51.958;4.540;2023-04-12T00:12:12;100140.91;;;9.28
13304;BMP280;6720;51.958;4.540;2023-04-12T00:14:38;100147.06;;;9.26
13304;BMP280;6720;51.958;4.540;2023-04-12T00:17:03;100144.47;;;9.24
13304;BMP280;6720;51.958;4.540;2023-04-12T00:19:28;100131.28;;;9.29
13304;BMP280;6720;51.958;4.540;2023-04-12T00:21:55;100126.28;;;9.20
13304;BMP280;6720;51.958;4.540;2023-04-12T00:24:21;100120.03;;;9.27
13304;BMP280;6720;51.958;4.540;2023-04-12T00:26:46;100106.91;;;9.30
13304;BMP280;6720;51.958;4.540;2023-04-12T00:29:11;100092.97;;;9.31
13304;BMP280;6720;51.958;4.540;2023-04-12T00:31:37;100086.09;;;9.27
13304;BMP280;6720;51.958;4.540;2023-04-12T00:34:02;100073.13;;;9.22
13304;BMP280;6720;51.958;4.540;2023-04-12T00:36:28;100068.72;;;9.26
13304;BMP280;6720;51.958;4.540;2023-04-12T00:38:53;100063.56;;;9.23
13304;BMP280;6720;51.958;4.540;2023-04-12T00:41:19;100056.63;;;9.22
13304;BMP280;6720;51.958;4.540;2023-04-12T00:43:45;100041.03;;;9.19
13304;BMP280;6720;51.958;4.540;2023-04-12T00:46:11;100054.91;;;9.21
13304;BMP280;6720;51.958;4.540;2023-04-12T00:48:37;100050.44;;;9.26
13304;BMP280;6720;51.958;4.540;2023-04-12T00:51:05;100022.75;;;9.19
13304;BMP280;6720;51.958;4.540;2023-04-12T00:53:32;100018.50;;;9.15
13304;BMP280;6720;51.958;4.540;2023-04-12T00:55:58;100017.50;;;9.20
13304;BMP280;6720;51.958;4.540;2023-04-12T00:58:23;100003.66;;;9.17
13304;BMP280;6720;51.958;4.540;2023-04-12T01:00:49;99998.38;;;9.18
13304;BMP280;6720;51.958;4.540;2023-04-12T01:03:20;99997.66;;;9.13
13304;BMP280;6720;51.958;4.540;2023-04-12T01:06:06;99985.53;;;9.11
13304;BMP280;6720;51.958;4.540;2023-04-12T01:08:58;99976.81;;;9.12
13304;BMP280;6720;51.958;4.540;2023-04-12T01:14:14;99972.34;;;9.15
13304;BMP280;6720;51.958;4.540;2023-04-12T01:16:49;99957.63;;;9.13
13304;BMP280;6720;51.958;4.540;2023-04-12T01:24:53;99938.69;;;9.05
13304;BMP280;6720;51.958;4.540;2023-04-12T01:27:41;99924.81;;;9.03
13304;BMP280;6720;51.958;4.540;2023-04-12T01:30:11;99924.75;;;9.06
13304;BMP280;6720;51.958;4.540;2023-04-12T01:32:38;99913.56;;;9.01
13304;BMP280;6720;51.958;4.540;2023-04-12T01:35:05;99898.03;;;8.95
13304;BMP280;6720;51.958;4.540;2023-04-12T01:37:33;99912.00;;;8.94
13304;BMP280;6720;51.958;4.540;2023-04-12T01:40:00;99886.00;;;8.89
13304;BMP280;6720;51.958;4.540;2023-04-12T01:42:25;99876.19;;;8.99
13304;BMP280;6720;51.958;4.540;2023-04-12T01:44:51;99866.66;;;8.98
13304;BMP280;6720;51.958;4.540;2023-04-12T01:47:16;99863.91;;;9.04
13304;BMP280;6720;51.958;4.540;2023-04-12T01:49:51;99846.69;;;8.97
13304;BMP280;6720;51.958;4.540;2023-04-12T01:52:18;99855.88;;;9.10
13304;BMP280;6720;51.958;4.540;2023-04-12T01:54:50;99848.38;;;8.98
13304;BMP280;6720;51.958;4.540;2023-04-12T01:57:19;99827.69;;;8.92
13304;BMP280;6720;51.958;4.540;2023-04-12T01:59:46;99829.13;;;9.02
13304;BMP280;6720;51.958;4.540;2023-04-12T02:02:13;99831.06;;;8.95
13304;BMP280;6720;51.958;4.540;2023-04-12T02:04:40;99817.28;;;8.90
13304;BMP280;6720;51.958;4.540;2023-04-12T02:07:06;99818.47;;;9.11
13304;BMP280;6720;51.958;4.540;2023-04-12T02:09:36;99808.53;;;8.93
13304;BMP280;6720;51.958;4.540;2023-04-12T02:12:26;99811.88;;;8.96
13304;BMP280;6720;51.958;4.540;2023-04-12T02:15:24;99808.34;;;8.99
13304;BMP280;6720;51.958;4.540;2023-04-12T02:18:05;99802.25;;;9.00
13304;BMP280;6720;51.958;4.540;2023-04-12T02:20:59;99797.09;;;8.97
13304;BMP280;6720;51.958;4.540;2023-04-12T02:26:54;99799.63;;;9.00
13304;BMP280;6720;51.958;4.540;2023-04-12T02:29:41;99759.84;;;8.92
13304;BMP280;6720;51.958;4.540;2023-04-12T02:32:43;99768.31;;;9.00
13304;BMP280;6720;51.958;4.540;2023-04-12T02:35:21;99748.38;;;8.97
13304;BMP280;6720;51.958;4.540;2023-04-12T02:37:47;99750.00;;;9.01
13304;BMP280;6720;51.958;4.540;2023-04-12T02:40:13;99731.03;;;8.95
13304;BMP280;6720;51.958;4.540;2023-04-12T02:42:42;99735.22;;;9.00
13304;BMP280;6720;51.958;4.540;2023-04-12T02:45:09;99742.22;;;9.00
13304;BMP280;6720;51.958;4.540;2023-04-12T02:47:34;99747.63;;;8.92
13304;BMP280;6720;51.958;4.540;2023-04-12T02:50:00;99733.75;;;8.92
13304;BMP280;6720;51.958;4.540;2023-04-12T02:52:26;99716.44;;;8.88
13304;BMP280;6720;51.958;4.540;2023-04-12T02:54:54;99721.34;;;9.00
13304;BMP280;6720;51.958;4.540;2023-04-12T02:57:20;99711.00;;;8.95
13304;BMP280;6720;51.958;4.540;2023-04-12T02:59:46;99699.81;;;8.92
13304;BMP280;6720;51.958;4.540;2023-04-12T03:02:11;99706.66;;;8.96
13304;BMP280;6720;51.958;4.540;2023-04-12T03:04:37;99696.34;;;8.91
13304;BMP280;6720;51.958;4.540;2023-04-12T03:07:04;99687.66;;;8.91
13304;BMP280;6720;51.958;4.540;2023-04-12T03:09:30;99691.78;;;8.98
13304;BMP280;6720;51.958;4.540;2023-04-12T03:11:56;99690.88;;;8.99
13304;BMP280;6720;51.958;4.540;2023-04-12T03:14:21;99681.34;;;8.98
13304;BMP280;6720;51.958;4.540;2023-04-12T03:16:47;99690.19;;;8.94
13304;BMP280;6720;51.958;4.540;2023-04-12T03:19:13;99673.44;;;9.01
13304;BMP280;6720;51.958;4.540;2023-04-12T03:21:38;99675.09;;;9.03
13304;BMP280;6720;51.958;4.540;2023-04-12T03:24:04;99671.63;;;9.03
13304;BMP280;6720;51.958;4.540;2023-04-12T03:26:29;99672.47;;;9.05
13304;BMP280;6720;51.958;4.540;2023-04-12T03:28:59;99659.53;;;9.00
13304;BMP280;6720;51.958;4.540;2023-04-12T03:31:25;99661.16;;;9.04
13304;BMP280;6720;51.958;4.540;2023-04-12T03:33:51;99643.81;;;9.02
13304;BMP280;6720;51.958;4.540;2023-04-12T03:36:17;99653.06;;;9.13
13304;BMP280;6720;51.958;4.540;2023-04-12T03:38:44;99638.19;;;9.15
13304;BMP280;6720;51.958;4.540;2023-04-12T03:41:09;99634.84;;;9.12
13304;BMP280;6720;51.958;4.540;2023-04-12T03:43:35;99649.59;;;9.13
13304;BMP280;6720;51.958;4.540;2023-04-12T03:46:04;99620.75;;;9.17
13304;BMP280;6720;51.958;4.540;2023-04-12T03:48:30;99612.09;;;9.15
13304;BMP280;6720;51.958;4.540;2023-04-12T03:50:56;99602.69;;;9.10
13304;BMP280;6720;51.958;4.540;2023-04-12T03:53:26;99604.03;;;9.23
13304;BMP280;6720;51.958;4.540;2023-04-12T03:55:52;99591.91;;;9.22
13304;BMP280;6720;51.958;4.540;2023-04-12T03:58:19;99586.75;;;9.19
13304;BMP280;6720;51.958;4.540;2023-04-12T04:00:44;99595.13;;;9.30
13304;BMP280;6720;51.958;4.540;2023-04-12T04:03:11;99607.25;;;9.31
13304;BMP280;6720;51.958;4.540;2023-04-12T04:05:36;99591.59;;;9.31
13304;BMP280;6720;51.958;4.540;2023-04-12T04:08:02;99597.59;;;9.33
13304;BMP280;6720;51.958;4.540;2023-04-12T04:10:29;99601.13;;;9.32
13304;BMP280;6720;51.958;4.540;2023-04-12T04:12:55;99608.97;;;9.32
13304;BMP280;6720;51.958;4.540;2023-04-12T04:15:20;99593.94;;;9.38
13304;BMP280;6720;51.958;4.540;2023-04-12T04:17:46;99602.34;;;9.22
13304;BMP280;6720;51.958;4.540;2023-04-12T04:20:13;99617.41;;;9.40
13304;BMP280;6720;51.958;4.540;2023-04-12T04:22:39;99609.03;;;9.29
13304;BMP280;6720;51.958;4.540;2023-04-12T04:25:06;99610.78;;;9.30
13304;BMP280;6720;51.958;4.540;2023-04-12T04:27:32;99600.03;;;9.39
13304;BMP280;6720;51.958;4.540;2023-04-12T04:30:01;99603.34;;;9.44
13304;BMP280;6720;51.958;4.540;2023-04-12T04:32:27;99599.84;;;9.45
13304;BMP280;6720;51.958;4.540;2023-04-12T04:34:56;99594.00;;;9.37
13304;BMP280;6720;51.958;4.540;2023-04-12T04:37:24;99596.03;;;9.27
13304;BMP280;6720;51.958;4.540;2023-04-12T04:39:50;99604.44;;;9.37
13304;BMP280;6720;51.958;4.540;2023-04-12T04:42:15;99614.75;;;9.41
13304;BMP280;6720;51.958;4.540;2023-04-12T04:44:41;99614.59;;;9.46
13304;BMP280;6720;51.958;4.540;2023-04-12T04:47:06;99622.44;;;9.46
13304;BMP280;6720;51.958;4.540;2023-04-12T04:49:32;99617.13;;;9.49
13304;BMP280;6720;51.958;4.540;2023-04-12T04:51:58;99623.13;;;9.51
13304;BMP280;6720;51.958;4.540;2023-04-12T04:54:23;99615.13;;;9.57
13304;BMP280;6720;51.958;4.540;2023-04-12T04:56:49;99604.44;;;9.63
13304;BMP280;6720;51.958;4.540;2023-04-12T04:59:14;99605.22;;;9.66
13304;BMP280;6720;51.958;4.540;2023-04-12T05:01:41;99610.22;;;9.72
13304;BMP280;6720;51.958;4.540;2023-04-12T05:04:07;99607.38;;;9.80
13304;BMP280;6720;51.958;4.540;2023-04-12T05:06:32;99608.06;;;9.85
13304;BMP280;6720;51.958;4.540;2023-04-12T05:08:58;99602.06;;;9.83
13304;BMP280;6720;51.958;4.540;2023-04-12T05:11:25;99605.22;;;9.92
13304;BMP280;6720;51.958;4.540;2023-04-12T05:13:51;99603.44;;;9.93
13304;BMP280;6720;51.958;4.540;2023-04-12T05:16:17;99603.13;;;10.02
13304;BMP280;6720;51.958;4.540;2023-04-12T05:18:43;99599.53;;;10.06
13304;BMP280;6720;51.958;4.540;2023-04-12T05:21:08;99598.63;;;10.07
13304;BMP280;6720;51.958;4.540;2023-04-12T05:23:36;99606.38;;;10.10
13304;BMP280;6720;51.958;4.540;2023-04-12T05:26:02;99597.41;;;10.17
13304;BMP280;6720;51.958;4.540;2023-04-12T05:28:28;99588.75;;;10.15
13304;BMP280;6720;51.958;4.540;2023-04-12T05:30:55;99595.44;;;10.23
13304;BMP280;6720;51.958;4.540;2023-04-12T05:33:23;99585.88;;;10.22
13304;BMP280;6720;51.958;4.540;2023-04-12T05:35:48;99593.44;;;10.30
13304;BMP280;6720;51.958;4.540;2023-04-12T05:38:15;99602.22;;;10.29
13304;BMP280;6720;51.958;4.540;2023-04-12T05:40:41;99587.38;;;10.29
13304;BMP280;6720;51.958;4.540;2023-04-12T05:43:08;99610.84;;;10.31
13304;BMP280;6720;51.958;4.540;2023-04-12T05:45:37;99615.00;;;10.36
13304;BMP280;6720;51.958;4.540;2023-04-12T05:48:03;99606.41;;;10.33
13304;BMP280;6720;51.958;4.540;2023-04-12T05:50:28;99607.22;;;10.35
13304;BMP280;6720;51.958;4.540;2023-04-12T05:52:54;99593.53;;;10.27
13304;BMP280;6720;51.958;4.540;2023-04-12T05:55:19;99594.25;;;10.32
13304;BMP280;6720;51.958;4.540;2023-04-12T05:57:45;99595.03;;;10.34
13304;BMP280;6720;51.958;4.540;2023-04-12T06:00:12;99609.75;;;10.36
13304;BMP280;6720;51.958;4.540;2023-04-12T06:02:40;99605.28;;;10.40
13304;BMP280;6720;51.958;4.540;2023-04-12T06:05:06;99600.25;;;10.34
13304;BMP280;6720;51.958;4.540;2023-04-12T06:07:32;99598.47;;;10.36
13304;BMP280;6720;51.958;4.540;2023-04-12T06:09:58;99601.72;;;10.42
13304;BMP280;6720;51.958;4.540;2023-04-12T06:12:23;99590.28;;;10.45
13304;BMP280;6720;51.958;4.540;2023-04-12T06:14:48;99600.75;;;10.45
13304;BMP280;6720;51.958;4.540;2023-04-12T06:17:14;99593.84;;;10.42
13304;BMP280;6720;51.958;4.540;2023-04-12T06:19:39;99598.13;;;10.45
13304;BMP280;6720;51.958;4.540;2023-04-12T06:22:05;99598.84;;;10.50
13304;BMP280;6720;51.958;4.540;2023-04-12T06:24:30;99599.63;;;10.52
13304;BMP280;6720;51.958;4.540;2023-04-12T06:26:56;99604.94;;;10.49
13304;BMP280;6720;51.958;4.540;2023-04-12T06:29:21;99604.84;;;10.52
13304;BMP280;6720;51.958;4.540;2023-04-12T06:31:46;99605.66;;;10.54
13304;BMP280;6720;51.958;4.540;2023-04-12T06:34:12;99598.13;;;10.45
13304;BMP280;6720;51.958;4.540;2023-04-12T06:36:37;99600.75;;;10.45
13304;BMP280;6720;51.958;4.540;2023-04-12T06:39:06;99602.22;;;10.52
13304;BMP280;6720;51.958;4.540;2023-04-12T06:41:32;99602.38;;;10.47
13304;BMP280;6720;51.958;4.540;2023-04-12T06:43:57;99592.69;;;10.51
13304;BMP280;6720;51.958;4.540;2023-04-12T06:46:26;99608.28;;;10.54
13304;BMP280;6720;51.958;4.540;2023-04-12T06:48:52;99613.25;;;10.60
13304;BMP280;6720;51.958;4.540;2023-04-12T06:51:17;99601.88;;;10.61
13304;BMP280;6720;51.958;4.540;2023-04-12T06:53:43;99596.84;;;10.56
13304;BMP280;6720;51.958;4.540;2023-04-12T06:56:08;99608.03;;;10.60
13304;BMP280;6720;51.958;4.540;2023-04-12T06:58:33;99606.09;;;10.65
13304;BMP280;6720;51.958;4.540;2023-04-12T07:01:06;99610.25;;;10.70
13304;BMP280;6720;51.958;4.540;2023-04-12T07:03:32;99613.50;;;10.77
13304;BMP280;6720;51.958;4.540;2023-04-12T07:05:58;99599.56;;;10.76
13304;BMP280;6720;51.958;4.540;2023-04-12T07:08:26;99601.31;;;10.76
13304;BMP280;6720;51.958;4.540;2023-04-12T07:10:53;99606.13;;;10.88
13304;BMP280;6720;51.958;4.540;2023-04-12T07:13:18;99603.81;;;10.79
13304;BMP280;6720;51.958;4.540;2023-04-12T07:15:44;99597.34;;;10.89
13304;BMP280;6720;51.958;4.540;2023-04-12T07:18:10;99601.06;;;11.05
13304;BMP280;6720;51.958;4.540;2023-04-12T07:20:36;99594.84;;;11.07
13304;BMP280;6720;51.958;4.540;2023-04-12T07:23:01;99595.06;;;11.03
13304;BMP280;6720;51.958;4.540;2023-04-12T07:25:26;99578.44;;;11.04
13304;BMP280;6720;51.958;4.540;2023-04-12T07:27:52;99585.19;;;11.09
13304;BMP280;6720;51.958;4.540;2023-04-12T07:30:17;99578.38;;;11.27
13304;BMP280;6720;51.958;4.540;2023-04-12T07:32:43;99567.16;;;11.45
13304;BMP280;6720;51.958;4.540;2023-04-12T07:35:08;99576.53;;;11.72
13304;BMP280;6720;51.958;4.540;2023-04-12T07:37:34;99574.31;;;11.83
13304;BMP280;6720;51.958;4.540;2023-04-12T07:40:00;99574.13;;;12.08
13304;BMP280;6720;51.958;4.540;2023-04-12T07:42:26;99559.22;;;12.08
13304;BMP280;6720;51.958;4.540;2023-04-12T07:44:51;99573.63;;;12.00
13304;BMP280;6720;51.958;4.540;2023-04-12T07:47:16;99567.91;;;11.90
13304;BMP280;6720;51.958;4.540;2023-04-12T07:49:42;99568.94;;;12.06
13304;BMP280;6720;51.958;4.540;2023-04-12T07:52:07;99568.09;;;12.06
13304;BMP280;6720;51.958;4.540;2023-04-12T07:54:32;99576.94;;;12.03
13304;BMP280;6720;51.958;4.540;2023-04-12T07:56:59;99581.13;;;12.07
13304;BMP280;6720;51.958;4.540;2023-04-12T07:59:25;99584.28;;;12.15
13304;BMP280;6720;51.958;4.540;2023-04-12T08:01:51;99576.34;;;12.17
13304;BMP280;6720;51.958;4.540;2023-04-12T08:04:16;99578.97;;;12.17
13304;BMP280;6720;51.958;4.540;2023-04-12T08:06:42;99576.75;;;12.08
13304;BMP280;6720;51.958;4.540;2023-04-12T08:09:07;99585.34;;;12.11
13304;BMP280;6720;51.958;4.540;2023-04-12T08:11:33;99578.81;;;12.01
13304;BMP280;6720;51.958;4.540;2023-04-12T08:13:59;99583.13;;;12.02
13304;BMP280;6720;51.958;4.540;2023-04-12T08:16:25;99576.56;;;12.12
13304;BMP280;6720;51.958;4.540;2023-04-12T08:18:51;99587.19;;;12.09
13304;BMP280;6720;51.958;4.540;2023-04-12T08:21:17;99584.28;;;12.15
13304;BMP280;6720;51.958;4.540;2023-04-12T08:23:42;99584.09;;;12.20
13304;BMP280;6720;51.958;4.540;2023-04-12T08:26:08;99582.59;;;12.14
13304;BMP280;6720;51.958;4.540;2023-04-12T08:28:33;99594.28;;;12.27
13304;BMP280;6720;51.958;4.540;2023-04-12T08:30:59;99577.25;;;12.36
13304;BMP280;6720;51.958;4.540;2023-04-12T08:33:25;99585.00;;;12.57
13304;BMP280;6720;51.958;4.540;2023-04-12T08:35:50;99586.06;;;12.53
13304;BMP280;6720;51.958;4.540;2023-04-12T08:38:17;99586.25;;;12.69
13304;BMP280;6720;51.958;4.540;2023-04-12T08:40:43;99581.66;;;12.92
13304;BMP280;6720;51.958;4.540;2023-04-12T08:43:11;99577.28;;;13.11
13304;BMP280;6720;51.958;4.540;2023-04-12T08:45:37;99581.28;;;12.81
13304;BMP280;6720;51.958;4.540;2023-04-12T08:48:06;99583.13;;;12.79
13304;BMP280;6720;51.958;4.540;2023-04-12T08:50:31;99569.22;;;12.96
13304;BMP280;6720;51.958;4.540;2023-04-12T08:52:58;99582.00;;;12.85
13304;BMP280;6720;51.958;4.540;2023-04-12T08:55:23;99577.72;;;12.82
13304;BMP280;6720;51.958;4.540;2023-04-12T08:57:52;99589.94;;;12.83
13304;BMP280;6720;51.958;4.540;2023-04-12T09:00:19;99578.66;;;12.81
13304;BMP280;6720;51.958;4.540;2023-04-12T09:02:45;99580.72;;;12.93
13304;BMP280;6720;51.958;4.540;2023-04-12T09:05:12;99580.22;;;12.85
13304;BMP280;6720;51.958;4.540;2023-04-12T09:07:39;99575.91;;;12.84
13304;BMP280;6720;51.958;4.540;2023-04-12T09:10:05;99575.41;;;12.95
13304;BMP280;6720;51.958;4.540;2023-04-12T09:12:30;99576.19;;;13.15
13304;BMP280;6720;51.958;4.540;2023-04-12T09:15:13;99579.72;;;13.33
13304;BMP280;6720;51.958;4.540;2023-04-12T09:17:40;99569.66;;;13.05
13304;BMP280;6720;51.958;4.540;2023-04-12T09:22:41;99577.47;;;13.25
13304;BMP280;6720;51.958;4.540;2023-04-12T09:25:11;99572.53;;;13.36
13304;BMP280;6720;51.958;4.540;2023-04-12T09:27:50;99577.75;;;13.19
13304;BMP280;6720;51.958;4.540;2023-04-12T09:30:17;99573.06;;;13.26
13304;BMP280;6720;51.958;4.540;2023-04-12T09:32:44;99574.91;;;13.24
13304;BMP280;6720;51.958;4.540;2023-04-12T09:35:09;99563.69;;;13.20
13304;BMP280;6720;51.958;4.540;2023-04-12T09:37:35;99563.66;;;13.39
13304;BMP280;6720;51.958;4.540;2023-04-12T09:40:02;99567.53;;;13.13
13304;BMP280;6720;51.958;4.540;2023-04-12T09:42:29;99572.13;;;13.27
13304;BMP280;6720;51.958;4.540;2023-04-12T09:44:56;99568.06;;;13.38
13304;BMP280;6720;51.958;4.540;2023-04-12T09:47:38;99580.53;;;13.16
13304;BMP280;6720;51.958;4.540;2023-04-12T09:50:07;99573.66;;;13.49
13304;BMP280;6720;51.958;4.540;2023-04-12T09:52:37;99581.59;;;13.83
13304;BMP280;6720;51.958;4.540;2023-04-12T09:55:09;99546.31;;;13.87
13304;BMP280;6720;51.958;4.540;2023-04-12T09:57:37;99573.91;;;13.79
13304;BMP280;6720;51.958;4.540;2023-04-12T10:00:08;99571.69;;;14.22
13304;BMP280;6720;51.958;4.540;2023-04-12T10:02:40;99574.38;;;14.70
13304;BMP280;6720;51.958;4.540;2023-04-12T10:05:06;99571.97;;;14.66
13304;BMP280;6720;51.958;4.540;2023-04-12T10:07:35;99575.91;;;14.42
13304;BMP280;6720;51.958;4.540;2023-04-12T10:10:02;99579.59;;;14.88
13304;BMP280;6720;51.958;4.540;2023-04-12T10:12:28;99577.72;;;14.90
13304;BMP280;6720;51.958;4.540;2023-04-12T10:14:54;99572.94;;;14.96
13304;BMP280;6720;51.958;4.540;2023-04-12T10:17:21;99577.41;;;14.13
13304;BMP280;6720;51.958;4.540;2023-04-12T10:19:47;99580.44;;;14.88
13304;BMP280;6720;51.958;4.540;2023-04-12T10:22:13;99576.53;;;15.26
13304;BMP280;6720;51.958;4.540;2023-04-12T10:24:39;99580.03;;;14.96
13304;BMP280;6720;51.958;4.540;2023-04-12T10:27:05;99597.22;;;15.03
13304;BMP280;6720;51.958;4.540;2023-04-12T10:29:31;99610.56;;;14.34
13304;BMP280;6720;51.958;4.540;2023-04-12T10:32:24;99593.94;;;14.15
13304;BMP280;6720;51.958;4.540;2023-04-12T10:34:55;99592.09;;;14.51
13304;BMP280;6720;51.958;4.540;2023-04-12T10:37:21;99579.09;;;14.97
13304;BMP280;6720;51.958;4.540;2023-04-12T10:39:53;99574.16;;;15.53
13304;BMP280;6720;51.958;4.540;2023-04-12T10:42:29;99573.13;;;15.55
13304;BMP280;6720;51.958;4.540;2023-04-12T10:50:21;99583.28;;;15.77
13304;BMP280;6720;51.958;4.540;2023-04-12T10:55:34;99574.66;;;15.44
13304;BMP280;6720;51.958;4.540;2023-04-12T10:57:59;99586.66;;;15.65
13304;BMP280;6720;51.958;4.540;2023-04-12T11:03:26;99593.31;;;14.61
13304;BMP280;6720;51.958;4.540;2023-04-12T11:06:00;99601.28;;;14.60
13304;BMP280;6720;51.958;4.540;2023-04-12T11:08:30;99585.69;;;14.73
13304;BMP280;6720;51.958;4.540;2023-04-12T11:11:00;99600.47;;;14.91
13304;BMP280;6720;51.958;4.540;2023-04-12T11:13:26;99592.53;;;15.23
13304;BMP280;6720;51.958;4.540;2023-04-12T11:15:55;99596.25;;;15.19
13304;BMP280;6720;51.958;4.540;2023-04-12T11:18:22;99601.00;;;15.13
13304;BMP280;6720;51.958;4.540;2023-04-12T11:20:47;99613.06;;;14.86
13304;BMP280;6720;51.958;4.540;2023-04-12T11:23:16;99605.94;;;15.03
13304;BMP280;6720;51.958;4.540;2023-04-12T11:25:42;99614.63;;;15.05
13304;BMP280;6720;51.958;4.540;2023-04-12T11:28:08;99612.03;;;14.88
13304;BMP280;6720;51.958;4.540;2023-04-12T11:30:33;99607.66;;;14.39
13304;BMP280;6720;51.958;4.540;2023-04-12T11:32:58;99605.22;;;14.68
13304;BMP280;6720;51.958;4.540;2023-04-12T11:35:27;99597.13;;;14.71
13304;BMP280;6720;51.958;4.540;2023-04-12T11:37:54;99616.34;;;14.73
13304;BMP280;6720;51.958;4.540;2023-04-12T11:40:21;99613.63;;;14.42
13304;BMP280;6720;51.958;4.540;2023-04-12T11:42:47;99628.50;;;14.26
13304;BMP280;6720;51.958;4.540;2023-04-12T11:45:18;99610.25;;;14.23
13304;BMP280;6720;51.958;4.540;2023-04-12T11:47:44;99609.66;;;14.17
13304;BMP280;6720;51.958;4.540;2023-04-12T11:50:09;99611.00;;;14.25
13304;BMP280;6720;51.958;4.540;2023-04-12T11:52:35;99626.56;;;14.30
13304;BMP280;6720;51.958;4.540;2023-04-12T11:55:04;99621.56;;;13.73
13304;BMP280;6720;51.958;4.540;2023-04-12T11:57:32;99621.50;;;13.91
13304;BMP280;6720;51.958;4.540;2023-04-12T11:59:57;99619.75;;;13.92
13304;BMP280;6720;51.958;4.540;2023-04-12T12:02:24;99636.94;;;13.63
13304;BMP280;6720;51.958;4.540;2023-04-12T12:04:50;99647.38;;;13.29
13304;BMP280;6720;51.958;4.540;2023-04-12T12:07:16;99611.53;;;12.90
13304;BMP280;6720;51.958;4.540;2023-04-12T12:09:43;99627.13;;;13.13
13304;BMP280;6720;51.958;4.540;2023-04-12T12:12:12;99645.16;;;13.02
13304;BMP280;6720;51.958;4.540;2023-04-12T12:14:38;99669.69;;;12.62
13304;BMP280;6720;51.958;4.540;2023-04-12T12:17:14;99660.75;;;12.66
13304;BMP280;6720;51.958;4.540;2023-04-12T12:19:42;99643.97;;;12.50
13304;BMP280;6720;51.958;4.540;2023-04-12T12:22:15;99633.97;;;12.38
13304;BMP280;6720;51.958;4.540;2023-04-12T12:24:59;99644.25;;;12.24
13304;BMP280;6720;51.958;4.540;2023-04-12T12:27:36;99630.06;;;12.48
13304;BMP280;6720;51.958;4.540;2023-04-12T12:30:02;99632.13;;;12.80
13304;BMP280;6720;51.958;4.540;2023-04-12T12:32:35;99633.06;;;13.16
13304;BMP280;6720;51.958;4.540;2023-04-12T12:35:02;99634.13;;;12.94
13304;BMP280;6720;51.958;4.540;2023-04-12T12:37:28;99635.63;;;12.79
13304;BMP280;6720;51.958;4.540;2023-04-12T12:42:34;99633.06;;;12.78
13304;BMP280;6720;51.958;4.540;2023-04-12T12:45:03;99623.94;;;13.06
13304;BMP280;6720;51.958;4.540;2023-04-12T12:47:29;99618.78;;;13.40
13304;BMP280;6720;51.958;4.540;2023-04-12T12:49:55;99627.22;;;13.82
13304;BMP280;6720;51.958;4.540;2023-04-12T12:52:21;99624.47;;;14.19
13304;BMP280;6720;51.958;4.540;2023-04-12T12:54:46;99617.19;;;14.41
13304;BMP280;6720;51.958;4.540;2023-04-12T12:57:11;99620.47;;;14.62
13304;BMP280;6720;51.958;4.540;2023-04-12T12:59:37;99617.38;;;14.87
13304;BMP280;6720;51.958;4.540;2023-04-12T13:02:02;99617.75;;;14.63
13304;BMP280;6720;51.958;4.540;2023-04-12T13:04:28;99627.19;;;14.85
13304;BMP280;6720;51.958;4.540;2023-04-12T13:06:53;99624.75;;;15.13
13304;BMP280;6720;51.958;4.540;2023-04-12T13:09:18;99622.84;;;14.99
13304;BMP280;6720;51.958;4.540;2023-04-12T13:11:44;99627.56;;;14.77
13304;BMP280;6720;51.958;4.540;2023-04-12T13:14:10;99613.16;;;14.51
13304;BMP280;6720;51.958;4.540;2023-04-12T13:16:35;99610.88;;;13.76
13304;BMP280;6720;51.958;4.540;2023-04-12T13:19:00;99613.44;;;14.11
13304;BMP280;6720;51.958;4.540;2023-04-12T13:21:26;99612.06;;;13.70
13304;BMP280;6720;51.958;4.540;2023-04-12T13:23:51;99604.78;;;13.21
13304;BMP280;6720;51.958;4.540;2023-04-12T13:26:17;99616.31;;;13.19
13304;BMP280;6720;51.958;4.540;2023-04-12T13:28:42;99608.56;;;13.34
13304;BMP280;6720;51.958;4.540;2023-04-12T13:31:07;99616.94;;;13.42
13304;BMP280;6720;51.958;4.540;2023-04-12T13:33:33;99619.06;;;13.34
13304;BMP280;6720;51.958;4.540;2023-04-12T13:35:58;99613.47;;;13.23
13304;BMP280;6720;51.958;4.540;2023-04-12T13:38:25;99616.53;;;13.14
13304;BMP280;6720;51.958;4.540;2023-04-12T13:40:50;99602.28;;;13.55
13304;BMP280;6720;51.958;4.540;2023-04-12T13:43:16;99589.63;;;13.63
13304;BMP280;6720;51.958;4.540;2023-04-12T13:45:41;99581.88;;;13.60
13304;BMP280;6720;51.958;4.540;2023-04-12T13:48:07;99589.81;;;13.23
13304;BMP280;6720;51.958;4.540;2023-04-12T13:50:32;99593.03;;;13.11
13304;BMP280;6720;51.958;4.540;2023-04-12T13:52:57;99600.72;;;12.96
13304;BMP280;6720;51.958;4.540;2023-04-12T13:55:23;99608.09;;;12.69
13304;BMP280;6720;51.958;4.540;2023-04-12T13:57:48;99596.63;;;12.72
13304;BMP280;6720;51.958;4.540;2023-04-12T14:00:14;99601.56;;;12.59
13304;BMP280;6720;51.958;4.540;2023-04-12T14:02:39;99592.00;;;12.38
13304;BMP280;6720;51.958;4.540;2023-04-12T14:05:05;99577.97;;;12.96
13304;BMP280;6720;51.958;4.540;2023-04-12T14:07:31;99586.16;;;13.80
13304;BMP280;6720;51.958;4.540;2023-04-12T14:09:56;99587.69;;;14.52
13304;BMP280;6720;51.958;4.540;2023-04-12T14:12:22;99577.72;;;15.05
13304;BMP280;6720;51.958;4.540;2023-04-12T14:14:47;99574.66;;;14.82
13304;BMP280;6720;51.958;4.540;2023-04-12T14:17:12;99583.38;;;14.66
13304;BMP280;6720;51.958;4.540;2023-04-12T14:19:38;99581.72;;;14.48
13304;BMP280;6720;51.958;4.540;2023-04-12T14:22:03;99578.06;;;14.84
13304;BMP280;6720;51.958;4.540;2023-04-12T14:24:29;99572.94;;;14.81
13304;BMP280;6720;51.958;4.540;2023-04-12T14:26:55;99568.03;;;15.06
13304;BMP280;6720;51.958;4.540;2023-04-12T14:29:21;99574.66;;;14.82
13304;BMP280;6720;51.958;4.540;2023-04-12T14:31:46;99575.16;;;14.73
13304;BMP280;6720;51.958;4.540;2023-04-12T14:34:12;99569.97;;;14.38
13304;BMP280;6720;51.958;4.540;2023-04-12T14:36:37;99575.31;;;13.86
13304;BMP280;6720;51.958;4.540;2023-04-12T14:39:03;99566.81;;;13.81
13304;BMP280;6720;51.958;4.540;2023-04-12T14:41:29;99548.22;;;14.35
13304;BMP280;6720;51.958;4.540;2023-04-12T14:43:55;99551.13;;;14.94
13304;BMP280;6720;51.958;4.540;2023-04-12T14:46:21;99564.25;;;14.13
13304;BMP280;6720;51.958;4.540;2023-04-12T14:48:47;99573.47;;;14.22
13304;BMP280;6720;51.958;4.540;2023-04-12T14:51:12;99566.88;;;14.30
13304;BMP280;6720;51.958;4.540;2023-04-12T14:53:39;99554.63;;;14.46